sensor_id;sensor_type;location;lat;lon;timestamp;pressure;altitude;pressure_sealevel;temperature;humidity
73338;BME280;61575;49.908;35.556;2022-09-09T00:02:22;99742.63;;;10.28;60.63
73338;BME280;61575;49.908;35.556;2022-09-09T00:05:35;99746.47;;;10.26;60.83
73338;BME280;61575;49.908;35.556;2022-09-09T00:12:14;99752.72;;;10.17;60.96
73338;BME280;61575;49.908;35.556;2022-09-09T00:22:04;99762.91;;;9.95;61.88
73338;BME280;61575;49.908;35.556;2022-09-09T00:25:14;99766.88;;;9.91;61.84
73338;BME280;61575;49.908;35.556;2022-09-09T00:28:20;99762.13;;;9.85;61.83
73338;BME280;61575;49.908;35.556;2022-09-09T00:31:29;99761.75;;;9.80;62.02
73338;BME280;61575;49.908;35.556;2022-09-09T00:34:32;99759.53;;;9.76;62.14
73338;BME280;61575;49.908;35.556;2022-09-09T00:37:35;99764.34;;;9.72;62.21
73338;BME280;61575;49.908;35.556;2022-09-09T00:40:44;99763.97;;;9.67;62.47
73338;BME280;61575;49.908;35.556;2022-09-09T00:57:28;99778.00;;;9.51;63.04
73338;BME280;61575;49.908;35.556;2022-09-09T01:00:37;99769.28;;;9.49;63.00
73338;BME280;61575;49.908;35.556;2022-09-09T01:06:50;99770.88;;;9.42;63.16
73338;BME280;61575;49.908;35.556;2022-09-09T01:10:00;99776.38;;;9.40;63.30
73338;BME280;61575;49.908;35.556;2022-09-09T01:13:13;99774.69;;;9.39;63.26
73338;BME280;61575;49.908;35.556;2022-09-09T01:16:17;99771.31;;;9.37;63.19
73338;BME280;61575;49.908;35.556;2022-09-09T01:26:52;99786.56;;;9.27;63.67
73338;BME280;61575;49.908;35.556;2022-09-09T01:30:00;99782.06;;;9.28;63.89
73338;BME280;61575;49.908;35.556;2022-09-09T01:33:03;99789.25;;;9.27;63.71
73338;BME280;61575;49.908;35.556;2022-09-09T01:39:21;99786.31;;;9.21;63.95
73338;BME280;61575;49.908;35.556;2022-09-09T01:42:31;99786.63;;;9.18;64.12
73338;BME280;61575;49.908;35.556;2022-09-09T01:45:34;99788.59;;;9.16;64.12
73338;BME280;61575;49.908;35.556;2022-09-09T01:48:36;99786.91;;;9.15;64.20
73338;BME280;61575;49.908;35.556;2022-09-09T01:51:43;99792.56;;;9.12;64.11
73338;BME280;61575;49.908;35.556;2022-09-09T01:54:48;99788.50;;;9.07;64.24
73338;BME280;61575;49.908;35.556;2022-09-09T02:07:39;99803.72;;;8.97;64.46
73338;BME280;61575;49.908;35.556;2022-09-09T02:11:12;99805.16;;;8.92;64.30
73338;BME280;61575;49.908;35.556;2022-09-09T02:14:39;99812.34;;;8.82;64.60
73338;BME280;61575;49.908;35.556;2022-09-09T02:17:46;99818.81;;;8.79;64.88
73338;BME280;61575;49.908;35.556;2022-09-09T02:20:52;99816.28;;;8.77;64.52
73338;BME280;61575;49.908;35.556;2022-09-09T02:23:57;99814.63;;;8.76;64.71
73338;BME280;61575;49.908;35.556;2022-09-09T02:27:05;99811.53;;;8.71;64.71
73338;BME280;61575;49.908;35.556;2022-09-09T02:30:11;99820.69;;;8.69;64.85
73338;BME280;61575;49.908;35.556;2022-09-09T02:33:27;99816.88;;;8.62;64.86
73338;BME280;61575;49.908;35.556;2022-09-09T02:36:33;99825.06;;;8.60;64.81
73338;BME280;61575;49.908;35.556;2022-09-09T02:39:36;99822.94;;;8.54;65.05
73338;BME280;61575;49.908;35.556;2022-09-09T02:42:46;99822.69;;;8.48;65.04
73338;BME280;61575;49.908;35.556;2022-09-09T02:49:23;99826.47;;;8.35;65.31
73338;BME280;61575;49.908;35.556;2022-09-09T02:53:07;99827.16;;;8.28;65.43
73338;BME280;61575;49.908;35.556;2022-09-09T02:56:17;99825.75;;;8.24;65.67
73338;BME280;61575;49.908;35.556;2022-09-09T02:59:24;99834.88;;;8.21;65.71
73338;BME280;61575;49.908;35.556;2022-09-09T03:02:27;99825.75;;;8.14;65.81
73338;BME280;61575;49.908;35.556;2022-09-09T03:05:35;99833.19;;;8.10;66.19
73338;BME280;61575;49.908;35.556;2022-09-09T03:08:39;99836.84;;;8.09;66.20
73338;BME280;61575;49.908;35.556;2022-09-09T03:11:42;99845.84;;;8.08;66.24
73338;BME280;61575;49.908;35.556;2022-09-09T03:14:45;99845.84;;;8.08;66.32
73338;BME280;61575;49.908;35.556;2022-09-09T03:17:48;99848.06;;;8.03;66.74
73338;BME280;61575;49.908;35.556;2022-09-09T03:20:50;99856.94;;;8.04;66.52
73338;BME280;61575;49.908;35.556;2022-09-09T03:23:54;99856.94;;;8.04;66.68
73338;BME280;61575;49.908;35.556;2022-09-09T03:26:56;99858.75;;;8.03;66.64
73338;BME280;61575;49.908;35.556;2022-09-09T03:29:58;99861.56;;;8.02;67.00
73338;BME280;61575;49.908;35.556;2022-09-09T03:33:00;99868.59;;;8.03;67.10
73338;BME280;61575;49.908;35.556;2022-09-09T03:36:06;99872.66;;;8.07;66.87
73338;BME280;61575;49.908;35.556;2022-09-09T03:39:10;99872.41;;;8.10;66.90
73338;BME280;61575;49.908;35.556;2022-09-09T03:42:16;99890.66;;;8.15;67.27
73338;BME280;61575;49.908;35.556;2022-09-09T03:45:25;99895.47;;;8.21;66.92
73338;BME280;61575;49.908;35.556;2022-09-09T03:48:27;99895.88;;;8.26;67.10
73338;BME280;61575;49.908;35.556;2022-09-09T03:51:30;99897.44;;;8.28;67.24
73338;BME280;61575;49.908;35.556;2022-09-09T03:54:33;99894.25;;;8.34;67.29
73338;BME280;61575;49.908;35.556;2022-09-09T03:57:36;99908.59;;;8.43;67.27
73338;BME280;61575;49.908;35.556;2022-09-09T04:00:42;99906.06;;;8.51;67.44
73338;BME280;61575;49.908;35.556;2022-09-09T04:03:46;99896.22;;;8.61;67.60
73338;BME280;61575;49.908;35.556;2022-09-09T04:06:48;99902.81;;;8.76;67.20
73338;BME280;61575;49.908;35.556;2022-09-09T04:09:50;99905.19;;;8.89;66.93
73338;BME280;61575;49.908;35.556;2022-09-09T04:12:53;99907.88;;;8.99;66.62
73338;BME280;61575;49.908;35.556;2022-09-09T04:15:57;99906.16;;;9.07;66.54
73338;BME280;61575;49.908;35.556;2022-09-09T04:19:00;99899.66;;;9.20;66.41
73338;BME280;61575;49.908;35.556;2022-09-09T04:22:03;99892.44;;;9.30;66.34
73338;BME280;61575;49.908;35.556;2022-09-09T04:25:07;99896.78;;;9.40;66.30
73338;BME280;61575;49.908;35.556;2022-09-09T04:28:09;99890.16;;;9.45;66.19
73338;BME280;61575;49.908;35.556;2022-09-09T04:31:20;99887.56;;;9.53;66.22
73338;BME280;61575;49.908;35.556;2022-09-09T04:34:28;99885.16;;;9.59;66.02
73338;BME280;61575;49.908;35.556;2022-09-09T04:37:31;99887.19;;;9.75;65.77
73338;BME280;61575;49.908;35.556;2022-09-09T04:40:34;99892.75;;;9.91;65.41
73338;BME280;61575;49.908;35.556;2022-09-09T04:43:38;99899.72;;;10.02;64.98
73338;BME280;61575;49.908;35.556;2022-09-09T04:46:41;99903.84;;;10.24;64.68
73338;BME280;61575;49.908;35.556;2022-09-09T04:49:44;99879.53;;;10.35;64.60
73338;BME280;61575;49.908;35.556;2022-09-09T04:52:46;99891.22;;;10.52;63.89
73338;BME280;61575;49.908;35.556;2022-09-09T04:55:48;99888.66;;;10.68;63.63
73338;BME280;61575;49.908;35.556;2022-09-09T04:58:50;99893.69;;;10.89;63.33
73338;BME280;61575;49.908;35.556;2022-09-09T05:01:56;99899.19;;;11.05;62.91
73338;BME280;61575;49.908;35.556;2022-09-09T05:04:58;99903.88;;;11.29;62.45
73338;BME280;61575;49.908;35.556;2022-09-09T05:08:03;99897.94;;;11.43;62.01
73338;BME280;61575;49.908;35.556;2022-09-09T05:11:19;99907.13;;;11.66;61.58
73338;BME280;61575;49.908;35.556;2022-09-09T05:14:22;99904.75;;;11.89;61.18
73338;BME280;61575;49.908;35.556;2022-09-09T05:17:24;99920.28;;;12.12;60.40
73338;BME280;61575;49.908;35.556;2022-09-09T05:20:27;99923.19;;;12.26;59.92
73338;BME280;61575;49.908;35.556;2022-09-09T05:23:30;99923.41;;;12.49;59.45
73338;BME280;61575;49.908;35.556;2022-09-09T05:26:33;99917.22;;;12.73;58.89
73338;BME280;61575;49.908;35.556;2022-09-09T05:29:37;99923.59;;;12.88;58.26
73338;BME280;61575;49.908;35.556;2022-09-09T05:32:42;99922.44;;;13.07;57.96
73338;BME280;61575;49.908;35.556;2022-09-09T05:35:46;99923.97;;;13.26;57.47
73338;BME280;61575;49.908;35.556;2022-09-09T05:38:49;99918.19;;;13.45;56.85
73338;BME280;61575;49.908;35.556;2022-09-09T05:41:51;99909.75;;;13.65;56.23
73338;BME280;61575;49.908;35.556;2022-09-09T05:44:54;99911.88;;;13.77;55.92
73338;BME280;61575;49.908;35.556;2022-09-09T05:47:56;99913.44;;;14.11;55.73
73338;BME280;61575;49.908;35.556;2022-09-09T05:50:59;99924.94;;;14.36;54.68
73338;BME280;61575;49.908;35.556;2022-09-09T05:54:01;99928.00;;;14.64;53.81
73338;BME280;61575;49.908;35.556;2022-09-09T05:57:09;99924.34;;;14.79;53.17
73338;BME280;61575;49.908;35.556;2022-09-09T06:00:12;99929.31;;;14.90;52.57
73338;BME280;61575;49.908;35.556;2022-09-09T06:03:19;99933.19;;;15.11;51.86
73338;BME280;61575;49.908;35.556;2022-09-09T06:06:27;99935.78;;;15.42;51.27
73338;BME280;61575;49.908;35.556;2022-09-09T06:09:33;99938.53;;;15.71;50.40
73338;BME280;61575;49.908;35.556;2022-09-09T06:12:35;99935.91;;;15.93;50.20
73338;BME280;61575;49.908;35.556;2022-09-09T06:15:37;99932.25;;;16.15;49.41
73338;BME280;61575;49.908;35.556;2022-09-09T06:18:40;99941.53;;;16.42;48.83
73338;BME280;61575;49.908;35.556;2022-09-09T06:21:43;99954.56;;;16.68;48.44
73338;BME280;61575;49.908;35.556;2022-09-09T06:24:46;99958.69;;;16.85;47.31
73338;BME280;61575;49.908;35.556;2022-09-09T06:27:48;99953.88;;;17.02;46.87
73338;BME280;61575;49.908;35.556;2022-09-09T06:30:56;99960.75;;;17.26;46.12
73338;BME280;61575;49.908;35.556;2022-09-09T06:33:59;99959.41;;;17.64;46.04
73338;BME280;61575;49.908;35.556;2022-09-09T06:37:04;99955.78;;;17.78;44.42
73338;BME280;61575;49.908;35.556;2022-09-09T06:40:16;99962.91;;;17.58;43.64
73338;BME280;61575;49.908;35.556;2022-09-09T06:43:18;99959.69;;;17.48;43.29
73338;BME280;61575;49.908;35.556;2022-09-09T06:46:26;99965.09;;;17.48;43.54
73338;BME280;61575;49.908;35.556;2022-09-09T06:49:32;99967.50;;;17.36;43.37
73338;BME280;61575;49.908;35.556;2022-09-09T06:52:36;99973.44;;;17.46;43.60
73338;BME280;61575;49.908;35.556;2022-09-09T06:55:39;99985.59;;;17.78;43.51
73338;BME280;61575;49.908;35.556;2022-09-09T06:58:44;99981.53;;;17.96;42.97
73338;BME280;61575;49.908;35.556;2022-09-09T07:01:53;99979.63;;;18.24;42.65
73338;BME280;61575;49.908;35.556;2022-09-09T07:04:57;99979.75;;;18.57;42.41
73338;BME280;61575;49.908;35.556;2022-09-09T07:08:00;99985.91;;;18.72;41.04
73338;BME280;61575;49.908;35.556;2022-09-09T07:11:04;99990.22;;;18.60;41.09
73338;BME280;61575;49.908;35.556;2022-09-09T07:14:15;100005.59;;;18.88;41.04
73338;BME280;61575;49.908;35.556;2022-09-09T07:17:21;100005.22;;;19.04;40.88
73338;BME280;61575;49.908;35.556;2022-09-09T07:20:23;100012.09;;;19.06;39.98
73338;BME280;61575;49.908;35.556;2022-09-09T07:23:26;100020.25;;;19.06;39.84
73338;BME280;61575;49.908;35.556;2022-09-09T07:26:30;100022.38;;;19.24;39.16
73338;BME280;61575;49.908;35.556;2022-09-09T07:29:34;100020.72;;;19.30;39.49
73338;BME280;61575;49.908;35.556;2022-09-09T07:32:37;100017.81;;;19.38;38.87
73338;BME280;61575;49.908;35.556;2022-09-09T07:35:39;100013.44;;;19.70;38.81
73338;BME280;61575;49.908;35.556;2022-09-09T07:38:43;100025.78;;;19.66;37.46
73338;BME280;61575;49.908;35.556;2022-09-09T07:41:48;100032.91;;;19.60;37.96
73338;BME280;61575;49.908;35.556;2022-09-09T07:44:53;100032.91;;;19.73;38.03
73338;BME280;61575;49.908;35.556;2022-09-09T07:47:57;100035.22;;;19.83;37.37
73338;BME280;61575;49.908;35.556;2022-09-09T07:51:04;100022.25;;;19.72;37.33
73338;BME280;61575;49.908;35.556;2022-09-09T07:54:11;100020.34;;;19.92;37.33
73338;BME280;61575;49.908;35.556;2022-09-09T07:57:16;100015.06;;;20.11;37.24
73338;BME280;61575;49.908;35.556;2022-09-09T08:00:21;100017.78;;;20.17;36.71
73338;BME280;61575;49.908;35.556;2022-09-09T08:03:28;100012.09;;;20.32;36.31
73338;BME280;61575;49.908;35.556;2022-09-09T08:06:33;100004.50;;;20.54;36.16
73338;BME280;61575;49.908;35.556;2022-09-09T08:09:35;99997.06;;;20.74;35.37
73338;BME280;61575;49.908;35.556;2022-09-09T08:12:46;99987.44;;;20.72;35.35
73338;BME280;61575;49.908;35.556;2022-09-09T08:16:14;99991.31;;;20.89;34.82
73338;BME280;61575;49.908;35.556;2022-09-09T08:19:17;99989.34;;;21.02;34.41
73338;BME280;61575;49.908;35.556;2022-09-09T08:22:20;99998.03;;;20.86;34.34
73338;BME280;61575;49.908;35.556;2022-09-09T08:25:24;99990.91;;;20.47;34.31
73338;BME280;61575;49.908;35.556;2022-09-09T08:28:26;99990.47;;;20.88;33.10
73338;BME280;61575;49.908;35.556;2022-09-09T08:31:32;99978.50;;;20.58;33.31
73338;BME280;61575;49.908;35.556;2022-09-09T08:34:34;99978.03;;;20.67;33.18
73338;BME280;61575;49.908;35.556;2022-09-09T08:37:45;99981.03;;;20.53;33.83
73338;BME280;61575;49.908;35.556;2022-09-09T08:40:57;99983.94;;;20.58;32.96
73338;BME280;61575;49.908;35.556;2022-09-09T08:50:50;99981.97;;;20.78;32.96
73338;BME280;61575;49.908;35.556;2022-09-09T08:54:02;99979.31;;;20.96;32.66
73338;BME280;61575;49.908;35.556;2022-09-09T08:57:13;99982.72;;;21.23;31.27
73338;BME280;61575;49.908;35.556;2022-09-09T09:00:16;99970.00;;;21.42;30.03
73338;BME280;61575;49.908;35.556;2022-09-09T09:13:13;99959.81;;;21.99;28.98
73338;BME280;61575;49.908;35.556;2022-09-09T09:16:57;99969.00;;;22.05;29.73
73338;BME280;61575;49.908;35.556;2022-09-09T09:20:03;99974.13;;;21.94;30.00
73338;BME280;61575;49.908;35.556;2022-09-09T09:23:06;99968.25;;;21.73;29.91
73338;BME280;61575;49.908;35.556;2022-09-09T09:26:14;99970.84;;;21.86;29.67
73338;BME280;61575;49.908;35.556;2022-09-09T09:29:19;99963.53;;;21.61;29.63
73338;BME280;61575;49.908;35.556;2022-09-09T09:32:22;99970.75;;;21.74;29.67
73338;BME280;61575;49.908;35.556;2022-09-09T09:35:25;99973.28;;;21.76;29.10
73338;BME280;61575;49.908;35.556;2022-09-09T09:38:28;99975.53;;;21.79;29.36
73338;BME280;61575;49.908;35.556;2022-09-09T09:41:52;99983.56;;;21.74;28.95
73338;BME280;61575;49.908;35.556;2022-09-09T09:44:54;99970.06;;;21.60;29.50
73338;BME280;61575;49.908;35.556;2022-09-09T09:48:00;99966.44;;;21.66;29.27
73338;BME280;61575;49.908;35.556;2022-09-09T09:51:13;99970.09;;;21.79;29.09
73338;BME280;61575;49.908;35.556;2022-09-09T09:54:28;99975.56;;;21.54;28.66
73338;BME280;61575;49.908;35.556;2022-09-09T09:57:36;99978.16;;;21.11;29.01
73338;BME280;61575;49.908;35.556;2022-09-09T10:00:50;99974.56;;;21.17;27.92
73338;BME280;61575;49.908;35.556;2022-09-09T10:03:59;99967.63;;;21.21;28.49
73338;BME280;61575;49.908;35.556;2022-09-09T10:07:13;99973.56;;;21.43;28.75
73338;BME280;61575;49.908;35.556;2022-09-09T10:10:25;99991.25;;;21.33;29.66
73338;BME280;61575;49.908;35.556;2022-09-09T10:17:30;99999.72;;;20.36;30.74
73338;BME280;61575;49.908;35.556;2022-09-09T10:20:46;99998.28;;;20.40;31.16
73338;BME280;61575;49.908;35.556;2022-09-09T10:44:15;99989.47;;;21.46;29.25
73338;BME280;61575;49.908;35.556;2022-09-09T10:51:13;99986.22;;;20.99;29.45
73338;BME280;61575;49.908;35.556;2022-09-09T10:54:41;99989.56;;;21.01;29.95
73338;BME280;61575;49.908;35.556;2022-09-09T10:57:51;99983.63;;;21.11;29.39
73338;BME280;61575;49.908;35.556;2022-09-09T11:00:59;99981.69;;;21.18;29.01
73338;BME280;61575;49.908;35.556;2022-09-09T11:04:28;99983.19;;;21.14;28.84
73338;BME280;61575;49.908;35.556;2022-09-09T11:07:56;99984.84;;;21.15;29.40
73338;BME280;61575;49.908;35.556;2022-09-09T11:11:04;99975.06;;;20.76;28.86
73338;BME280;61575;49.908;35.556;2022-09-09T11:14:31;99971.81;;;20.54;28.80
73338;BME280;61575;49.908;35.556;2022-09-09T11:17:43;99972.22;;;20.57;29.54
73338;BME280;61575;49.908;35.556;2022-09-09T11:20:56;99964.56;;;20.79;29.43
73338;BME280;61575;49.908;35.556;2022-09-09T11:24:04;99968.66;;;20.88;29.31
73338;BME280;61575;49.908;35.556;2022-09-09T11:27:27;99978.28;;;20.91;29.16
73338;BME280;61575;49.908;35.556;2022-09-09T11:37:38;99979.56;;;20.88;29.59
73338;BME280;61575;49.908;35.556;2022-09-09T11:40:44;99989.47;;;20.83;29.54
73338;BME280;61575;49.908;35.556;2022-09-09T11:46:51;99983.41;;;20.29;30.07
73338;BME280;61575;49.908;35.556;2022-09-09T11:49:53;99980.72;;;20.16;30.04
73338;BME280;61575;49.908;35.556;2022-09-09T11:56:12;99975.06;;;20.18;30.05
73338;BME280;61575;49.908;35.556;2022-09-09T11:59:24;99972.94;;;20.26;30.45
73338;BME280;61575;49.908;35.556;2022-09-09T12:02:28;99969.56;;;20.31;30.16
73338;BME280;61575;49.908;35.556;2022-09-09T12:05:52;99978.34;;;20.46;29.89
73338;BME280;61575;49.908;35.556;2022-09-09T12:08:58;99976.88;;;20.44;28.14
73338;BME280;61575;49.908;35.556;2022-09-09T12:12:21;99974.53;;;20.54;28.53
73338;BME280;61575;49.908;35.556;2022-09-09T12:15:28;99972.44;;;20.56;28.32
73338;BME280;61575;49.908;35.556;2022-09-09T12:18:38;99974.09;;;20.57;28.62
73338;BME280;61575;49.908;35.556;2022-09-09T12:21:48;99972.78;;;20.73;28.67
73338;BME280;61575;49.908;35.556;2022-09-09T12:24:59;99953.91;;;20.71;29.05
73338;BME280;61575;49.908;35.556;2022-09-09T12:28:15;99963.72;;;20.79;29.52
73338;BME280;61575;49.908;35.556;2022-09-09T12:31:27;99970.25;;;20.71;29.70
73338;BME280;61575;49.908;35.556;2022-09-09T12:37:52;99968.16;;;20.73;29.54
73338;BME280;61575;49.908;35.556;2022-09-09T12:40:58;99966.31;;;20.67;28.91
73338;BME280;61575;49.908;35.556;2022-09-09T12:44:05;99968.44;;;20.58;29.70
73338;BME280;61575;49.908;35.556;2022-09-09T12:47:10;99966.19;;;20.49;29.81
73338;BME280;61575;49.908;35.556;2022-09-09T12:50:21;99968.53;;;20.39;29.67
73338;BME280;61575;49.908;35.556;2022-09-09T12:56:31;99975.72;;;20.13;29.55
73338;BME280;61575;49.908;35.556;2022-09-09T12:59:39;99983.47;;;20.10;29.68
73338;BME280;61575;49.908;35.556;2022-09-09T13:02:58;99970.50;;;19.98;30.36
73338;BME280;61575;49.908;35.556;2022-09-09T13:06:12;99964.69;;;19.82;29.55
73338;BME280;61575;49.908;35.556;2022-09-09T13:09:14;99968.25;;;19.76;30.14
73338;BME280;61575;49.908;35.556;2022-09-09T13:12:22;99965.53;;;19.69;29.96
73338;BME280;61575;49.908;35.556;2022-09-09T13:15:26;99970.78;;;19.57;30.21
73338;BME280;61575;49.908;35.556;2022-09-09T13:18:33;99972.63;;;19.50;30.38
73338;BME280;61575;49.908;35.556;2022-09-09T13:21:37;99972.41;;;19.45;30.32
73338;BME280;61575;49.908;35.556;2022-09-09T13:24:39;99973.47;;;19.44;30.17
73338;BME280;61575;49.908;35.556;2022-09-09T13:27:50;99967.19;;;19.37;30.10
73338;BME280;61575;49.908;35.556;2022-09-09T13:31:02;99979.13;;;19.36;29.65
73338;BME280;61575;49.908;35.556;2022-09-09T13:34:13;99963.63;;;19.30;30.04
73338;BME280;61575;49.908;35.556;2022-09-09T13:37:37;99973.88;;;19.21;30.06
73338;BME280;61575;49.908;35.556;2022-09-09T13:40:40;99978.06;;;19.24;30.73
73338;BME280;61575;49.908;35.556;2022-09-09T13:43:53;99979.09;;;19.16;30.91
73338;BME280;61575;49.908;35.556;2022-09-09T13:47:06;99984.09;;;19.06;31.32
73338;BME280;61575;49.908;35.556;2022-09-09T13:50:25;99987.66;;;19.06;30.81
73338;BME280;61575;49.908;35.556;2022-09-09T13:53:27;99976.78;;;19.06;30.88
73338;BME280;61575;49.908;35.556;2022-09-09T13:56:30;99980.34;;;19.14;31.39
73338;BME280;61575;49.908;35.556;2022-09-09T13:59:33;99981.81;;;19.16;30.86
73338;BME280;61575;49.908;35.556;2022-09-09T14:02:56;99985.34;;;19.10;30.20
73338;BME280;61575;49.908;35.556;2022-09-09T14:05:57;99986.22;;;19.17;30.23
73338;BME280;61575;49.908;35.556;2022-09-09T14:08:59;99995.22;;;19.24;29.96
73338;BME280;61575;49.908;35.556;2022-09-09T14:12:02;99993.13;;;19.46;29.95
73338;BME280;61575;49.908;35.556;2022-09-09T14:15:05;99999.66;;;19.52;29.51
73338;BME280;61575;49.908;35.556;2022-09-09T14:18:11;99998.16;;;19.49;29.19
73338;BME280;61575;49.908;35.556;2022-09-09T14:21:14;99996.50;;;19.55;30.15
73338;BME280;61575;49.908;35.556;2022-09-09T14:24:17;99996.50;;;19.55;30.52
73338;BME280;61575;49.908;35.556;2022-09-09T14:27:19;100001.53;;;19.64;30.75
73338;BME280;61575;49.908;35.556;2022-09-09T14:30:21;99998.38;;;19.61;30.66
73338;BME280;61575;49.908;35.556;2022-09-09T14:33:23;99995.03;;;19.72;31.12
73338;BME280;61575;49.908;35.556;2022-09-09T14:36:26;99995.03;;;19.79;29.96
73338;BME280;61575;49.908;35.556;2022-09-09T14:39:29;99996.69;;;19.93;30.53
73338;BME280;61575;49.908;35.556;2022-09-09T14:42:31;99979.34;;;19.81;29.65
73338;BME280;61575;49.908;35.556;2022-09-09T14:45:35;99996.06;;;19.84;29.81
73338;BME280;61575;49.908;35.556;2022-09-09T14:48:38;99995.63;;;19.94;30.18
73338;BME280;61575;49.908;35.556;2022-09-09T14:51:42;99999.19;;;19.94;29.63
73338;BME280;61575;49.908;35.556;2022-09-09T14:54:44;100001.72;;;19.69;29.44
73338;BME280;61575;49.908;35.556;2022-09-09T14:57:46;99997.53;;;19.47;29.91
73338;BME280;61575;49.908;35.556;2022-09-09T15:00:48;100005.25;;;19.30;30.21
73338;BME280;61575;49.908;35.556;2022-09-09T15:03:55;100010.44;;;19.05;30.74
73338;BME280;61575;49.908;35.556;2022-09-09T15:06:59;100025.22;;;18.90;30.88
73338;BME280;61575;49.908;35.556;2022-09-09T15:10:02;100016.38;;;18.68;30.97
73338;BME280;61575;49.908;35.556;2022-09-09T15:13:04;100027.75;;;18.50;31.20
73338;BME280;61575;49.908;35.556;2022-09-09T15:16:14;100039.78;;;18.34;31.49
73338;BME280;61575;49.908;35.556;2022-09-09T15:19:16;100034.25;;;18.15;31.47
73338;BME280;61575;49.908;35.556;2022-09-09T15:22:18;100030.16;;;17.97;31.64
73338;BME280;61575;49.908;35.556;2022-09-09T15:25:20;100034.66;;;17.84;32.08
73338;BME280;61575;49.908;35.556;2022-09-09T15:28:23;100038.69;;;17.66;32.41
73338;BME280;61575;49.908;35.556;2022-09-09T15:31:28;100042.50;;;17.51;32.79
73338;BME280;61575;49.908;35.556;2022-09-09T15:34:31;100044.31;;;17.43;33.33
73338;BME280;61575;49.908;35.556;2022-09-09T15:37:33;100047.72;;;17.31;33.55
73338;BME280;61575;49.908;35.556;2022-09-09T15:40:36;100049.47;;;17.17;33.78
73338;BME280;61575;49.908;35.556;2022-09-09T15:43:38;100052.88;;;17.04;34.23
73338;BME280;61575;49.908;35.556;2022-09-09T15:49:43;100051.53;;;16.79;34.79
73338;BME280;61575;49.908;35.556;2022-09-09T15:52:45;100065.56;;;16.68;35.12
73338;BME280;61575;49.908;35.556;2022-09-09T15:55:47;100057.22;;;16.55;35.40
73338;BME280;61575;49.908;35.556;2022-09-09T15:58:52;100061.44;;;16.42;35.55
73338;BME280;61575;49.908;35.556;2022-09-09T16:01:54;100067.69;;;16.28;35.83
73338;BME280;61575;49.908;35.556;2022-09-09T16:04:56;100066.94;;;16.19;36.23
73338;BME280;61575;49.908;35.556;2022-09-09T16:08:02;100073.47;;;16.10;36.34
73338;BME280;61575;49.908;35.556;2022-09-09T16:11:12;100072.06;;;16.00;36.71
73338;BME280;61575;49.908;35.556;2022-09-09T16:14:16;100072.69;;;15.87;36.99
73338;BME280;61575;49.908;35.556;2022-09-09T16:17:18;100073.97;;;15.76;37.02
73338;BME280;61575;49.908;35.556;2022-09-09T16:20:22;100081.84;;;15.63;37.33
73338;BME280;61575;49.908;35.556;2022-09-09T16:23:23;100090.03;;;15.55;37.45
73338;BME280;61575;49.908;35.556;2022-09-09T16:26:27;100080.47;;;15.44;37.81
73338;BME280;61575;49.908;35.556;2022-09-09T16:29:29;100087.31;;;15.32;38.00
73338;BME280;61575;49.908;35.556;2022-09-09T16:32:32;100082.69;;;15.18;38.51
73338;BME280;61575;49.908;35.556;2022-09-09T16:35:37;100090.50;;;15.13;38.33
73338;BME280;61575;49.908;35.556;2022-09-09T16:38:41;100086.34;;;15.02;38.71
73338;BME280;61575;49.908;35.556;2022-09-09T16:41:45;100088.41;;;14.92;39.26
73338;BME280;61575;49.908;35.556;2022-09-09T16:44:48;100099.44;;;14.82;39.35
73338;BME280;61575;49.908;35.556;2022-09-09T16:47:51;100102.34;;;14.73;39.77
73338;BME280;61575;49.908;35.556;2022-09-09T16:51:01;100100.34;;;14.67;40.13
73338;BME280;61575;49.908;35.556;2022-09-09T16:54:05;100103.91;;;14.59;40.25
73338;BME280;61575;49.908;35.556;2022-09-09T16:57:10;100119.97;;;14.52;40.31
73338;BME280;61575;49.908;35.556;2022-09-09T17:00:12;100122.69;;;14.44;40.35
73338;BME280;61575;49.908;35.556;2022-09-09T17:03:15;100122.66;;;14.36;40.42
73338;BME280;61575;49.908;35.556;2022-09-09T17:06:18;100119.84;;;14.21;40.93
73338;BME280;61575;49.908;35.556;2022-09-09T17:09:22;100125.91;;;14.23;40.72
73338;BME280;61575;49.908;35.556;2022-09-09T17:12:25;100123.88;;;14.17;40.78
73338;BME280;61575;49.908;35.556;2022-09-09T17:15:27;100131.66;;;14.12;40.94
73338;BME280;61575;49.908;35.556;2022-09-09T17:18:29;100124.41;;;14.05;41.29
73338;BME280;61575;49.908;35.556;2022-09-09T17:21:33;100132.00;;;14.01;41.11
73338;BME280;61575;49.908;35.556;2022-09-09T17:24:36;100136.72;;;13.91;41.36
73338;BME280;61575;49.908;35.556;2022-09-09T17:27:40;100139.94;;;13.86;41.52
73338;BME280;61575;49.908;35.556;2022-09-09T17:30:42;100140.25;;;13.83;41.61
73338;BME280;61575;49.908;35.556;2022-09-09T17:33:46;100137.22;;;13.78;41.63
73338;BME280;61575;49.908;35.556;2022-09-09T17:36:49;100149.69;;;13.71;41.85
73338;BME280;61575;49.908;35.556;2022-09-09T17:39:51;100143.63;;;13.69;41.82
73338;BME280;61575;49.908;35.556;2022-09-09T17:42:56;100146.66;;;13.66;42.17
73338;BME280;61575;49.908;35.556;2022-09-09T17:46:21;100149.34;;;13.58;42.69
73338;BME280;61575;49.908;35.556;2022-09-09T17:49:23;100158.75;;;13.54;42.44
73338;BME280;61575;49.908;35.556;2022-09-09T17:52:25;100148.50;;;13.49;42.77
73338;BME280;61575;49.908;35.556;2022-09-09T17:55:28;100155.06;;;13.47;42.83
73338;BME280;61575;49.908;35.556;2022-09-09T17:58:30;100161.63;;;13.44;43.16
73338;BME280;61575;49.908;35.556;2022-09-09T18:01:37;100163.97;;;13.39;43.41
73338;BME280;61575;49.908;35.556;2022-09-09T18:04:40;100170.84;;;13.34;43.49
73338;BME280;61575;49.908;35.556;2022-09-09T18:07:45;100159.56;;;13.30;43.75
73338;BME280;61575;49.908;35.556;2022-09-09T18:10:51;100164.44;;;13.26;43.88
73338;BME280;61575;49.908;35.556;2022-09-09T18:14:00;100166.44;;;13.24;43.94